createdAt,value
2023-04-30T00:00:22.154Z,7.30
2023-04-30T00:03:25.150Z,7.43
2023-04-30T00:06:28.529Z,9.20
2023-04-30T00:09:31.120Z,9.47
2023-04-30T00:12:33.639Z,9.95
2023-04-30T00:15:36.625Z,8.88
2023-04-30T00:18:39.624Z,9.15
2023-04-30T00:21:42.438Z,9.70
2023-04-30T00:24:44.893Z,9.43
2023-04-30T00:27:47.489Z,9.25
2023-04-30T00:30:49.893Z,9.40
2023-04-30T00:33:52.319Z,9.38
2023-04-30T00:36:54.852Z,9.20
2023-04-30T00:39:57.386Z,9.80
2023-04-30T00:42:59.997Z,9.27
2023-04-30T00:46:03.932Z,9.23
2023-04-30T00:49:06.726Z,9.60
2023-04-30T00:52:09.220Z,10.18
2023-04-30T00:55:13.176Z,8.63
2023-04-30T00:58:16.011Z,9.95
2023-04-30T01:01:18.793Z,9.57
2023-04-30T01:04:21.959Z,10.18
2023-04-30T01:07:28.361Z,9.80
2023-04-30T01:10:42.253Z,9.97
2023-04-30T01:13:58.473Z,9.43
2023-04-30T01:17:17.674Z,9.98
2023-04-30T01:20:20.675Z,9.82
2023-04-30T01:24:00.635Z,9.98
2023-04-30T01:27:09.976Z,11.32
2023-04-30T01:30:13.937Z,10.80
2023-04-30T01:33:16.419Z,11.27
2023-04-30T01:36:57.524Z,20.70
2023-04-30T01:40:24.205Z,12.25
2023-04-30T01:43:38.721Z,11.70
2023-04-30T01:46:46.792Z,10.73
2023-04-30T01:50:08.757Z,11.43
2023-04-30T01:53:17.077Z,11.35
2023-04-30T01:56:34.065Z,10.43
2023-04-30T01:59:39.707Z,10.80
2023-04-30T02:02:42.664Z,10.68
2023-04-30T02:05:45.262Z,10.93
2023-04-30T02:08:48.371Z,11.23
2023-04-30T02:11:51.341Z,10.45
2023-04-30T02:14:53.805Z,11.47
2023-04-30T02:17:56.374Z,11.45
2023-04-30T02:20:58.878Z,12.02
2023-04-30T02:24:01.667Z,10.23
2023-04-30T02:27:04.073Z,10.60
2023-04-30T02:30:07.148Z,12.07
2023-04-30T02:33:12.392Z,11.52
2023-04-30T02:36:14.843Z,11.57
2023-04-30T02:39:17.530Z,12.45
2023-04-30T02:42:20.260Z,11.30
2023-04-30T02:45:22.704Z,12.10
2023-04-30T02:48:25.350Z,12.00
2023-04-30T02:51:28.339Z,11.80
2023-04-30T02:54:30.854Z,12.25
2023-04-30T02:57:33.274Z,11.65
2023-04-30T03:00:35.777Z,10.88
2023-04-30T03:03:38.312Z,10.48
2023-04-30T03:06:40.920Z,9.93
2023-04-30T03:09:44.006Z,12.07
2023-04-30T03:12:46.650Z,9.73
2023-04-30T03:15:49.057Z,10.60
2023-04-30T03:18:51.647Z,11.35
2023-04-30T03:21:54.891Z,9.85
2023-04-30T03:24:57.324Z,11.63
2023-04-30T03:27:59.862Z,9.52
2023-04-30T03:31:05.440Z,10.95
2023-04-30T03:34:08.181Z,11.60
2023-04-30T03:37:10.702Z,10.20
2023-04-30T03:40:13.268Z,10.77
2023-04-30T03:43:15.832Z,11.70
2023-04-30T03:46:18.864Z,11.17
2023-04-30T03:49:21.922Z,11.43
2023-04-30T03:52:24.449Z,11.63
2023-04-30T03:55:27.075Z,10.43
2023-04-30T03:58:30.115Z,10.90
2023-04-30T04:01:32.835Z,11.27
2023-04-30T04:04:35.686Z,11.15
2023-04-30T04:07:38.146Z,10.83
2023-04-30T04:10:41.103Z,11.48
2023-04-30T04:13:44.697Z,10.75
2023-04-30T04:16:48.628Z,9.87
2023-04-30T04:19:51.076Z,11.00
2023-04-30T04:22:54.054Z,10.98
2023-04-30T04:25:57.601Z,11.38
2023-04-30T04:29:00.552Z,10.68
2023-04-30T04:32:04.677Z,11.52
2023-04-30T04:35:08.450Z,10.95
2023-04-30T04:38:10.865Z,10.60
2023-04-30T04:41:13.258Z,11.43
2023-04-30T04:44:16.043Z,10.80
2023-04-30T04:47:21.911Z,10.47
2023-04-30T04:50:24.674Z,11.00
2023-04-30T04:53:27.170Z,10.20
2023-04-30T04:56:29.581Z,10.05
2023-04-30T04:59:32.191Z,9.43
2023-04-30T05:02:34.711Z,9.13
2023-04-30T05:05:37.090Z,10.55
2023-04-30T05:08:39.545Z,9.47
2023-04-30T05:11:43.844Z,9.80
2023-04-30T05:14:47.683Z,8.40
2023-04-30T05:17:50.094Z,8.67
2023-04-30T05:20:52.498Z,9.23
2023-04-30T05:23:55.431Z,33.10
2023-04-30T05:26:58.013Z,10.52
2023-04-30T05:30:00.886Z,9.32
2023-04-30T05:33:03.758Z,9.27
2023-04-30T05:36:06.410Z,7.30
2023-04-30T05:39:09.451Z,7.57
2023-04-30T05:42:11.864Z,7.63
2023-04-30T05:45:17.202Z,6.82
2023-04-30T05:48:19.987Z,6.93
2023-04-30T05:51:22.491Z,6.07
2023-04-30T05:54:25.172Z,6.68
2023-04-30T05:57:27.597Z,6.80
2023-04-30T06:00:31.242Z,5.32
2023-04-30T06:03:33.737Z,5.03
2023-04-30T06:06:36.338Z,4.80
2023-04-30T06:09:38.841Z,5.87
2023-04-30T06:12:41.325Z,6.53
2023-04-30T06:15:43.734Z,5.78
2023-04-30T06:18:46.115Z,7.00
2023-04-30T06:21:48.702Z,5.78
2023-04-30T06:24:51.092Z,6.85
2023-04-30T06:27:54.176Z,5.70
2023-04-30T06:30:56.896Z,5.22
2023-04-30T06:33:59.703Z,6.32
2023-04-30T06:37:02.053Z,5.80
2023-04-30T06:40:06.229Z,4.97
2023-04-30T06:43:08.639Z,4.85
2023-04-30T06:46:11.177Z,12.95
2023-04-30T06:49:13.813Z,7.57
2023-04-30T06:52:16.217Z,7.80
2023-04-30T06:55:19.050Z,7.22
2023-04-30T06:58:21.510Z,7.95
2023-04-30T07:01:23.928Z,6.07
2023-04-30T07:04:27.212Z,5.90
2023-04-30T07:07:29.698Z,6.18
2023-04-30T07:10:32.259Z,5.50
2023-04-30T07:13:34.717Z,5.80
2023-04-30T07:16:37.179Z,5.75
2023-04-30T07:19:39.777Z,5.87
2023-04-30T07:22:46.513Z,5.57
2023-04-30T07:25:49.366Z,5.00
2023-04-30T07:28:51.930Z,5.63
2023-04-30T07:31:54.403Z,5.18
2023-04-30T07:34:57.155Z,8.63
2023-04-30T07:37:59.527Z,5.22
2023-04-30T07:41:02.231Z,6.27
2023-04-30T07:44:04.954Z,4.95
2023-04-30T07:47:07.688Z,5.68
2023-04-30T07:50:10.505Z,4.70
2023-04-30T07:53:13.010Z,5.60
2023-04-30T07:56:15.983Z,4.72
2023-04-30T07:59:18.789Z,4.78
2023-04-30T08:02:21.822Z,4.43
2023-04-30T08:05:24.543Z,4.68
2023-04-30T08:08:26.989Z,4.60
2023-04-30T08:11:29.698Z,5.00
2023-04-30T08:14:33.123Z,4.63
2023-04-30T08:17:36.018Z,4.60
2023-04-30T08:20:38.800Z,4.13
2023-04-30T08:23:41.312Z,5.07
2023-04-30T08:26:43.723Z,5.50
2023-04-30T08:29:46.247Z,4.22
2023-04-30T08:32:49.428Z,3.85
2023-04-30T08:35:51.988Z,3.70
2023-04-30T08:38:54.635Z,3.33
2023-04-30T08:41:57.876Z,2.57
2023-04-30T08:45:01.628Z,3.10
2023-04-30T08:48:05.428Z,3.08
2023-04-30T08:51:08.019Z,2.80
2023-04-30T08:54:13.038Z,2.63
2023-04-30T08:57:15.610Z,2.80
2023-04-30T09:00:18.347Z,2.90
2023-04-30T09:03:23.809Z,3.63
2023-04-30T09:06:27.272Z,3.20
2023-04-30T09:09:31.763Z,5.30
2023-04-30T09:12:35.290Z,6.73
2023-04-30T09:15:41.685Z,6.43
2023-04-30T09:18:44.318Z,4.07
2023-04-30T09:21:47.058Z,6.47
2023-04-30T09:24:51.028Z,2.92
2023-04-30T09:28:12.796Z,2.85
2023-04-30T09:31:22.176Z,16.05
2023-04-30T09:34:35.732Z,17.88
2023-04-30T09:37:38.702Z,12.32
2023-04-30T09:40:42.688Z,23.63
2023-04-30T09:43:45.987Z,4.47
2023-04-30T09:46:50.918Z,6.05
2023-04-30T09:49:53.725Z,7.13
2023-04-30T09:53:06.577Z,4.10
2023-04-30T09:56:12.118Z,6.18
2023-04-30T09:59:16.228Z,4.50
2023-04-30T10:02:20.251Z,4.45
2023-04-30T10:05:23.079Z,18.65
2023-04-30T10:08:31.841Z,6.45
2023-04-30T10:11:37.659Z,4.93
2023-04-30T10:14:45.716Z,7.83
2023-04-30T10:18:02.343Z,3.78
2023-04-30T10:21:12.607Z,5.70
2023-04-30T10:24:20.673Z,3.37
2023-04-30T10:27:23.293Z,3.13
2023-04-30T10:30:26.254Z,2.47
2023-04-30T10:33:41.898Z,2.85
2023-04-30T10:36:44.848Z,2.35
2023-04-30T10:39:47.445Z,39.22
2023-04-30T10:42:54.632Z,10.63
2023-04-30T10:45:58.720Z,2.30
2023-04-30T10:49:01.432Z,6.13
2023-04-30T10:52:05.048Z,5.68
2023-04-30T10:55:09.092Z,4.20
2023-04-30T10:58:29.973Z,1.77
2023-04-30T11:01:57.249Z,1.48
2023-04-30T11:05:11.598Z,3.03
2023-04-30T11:08:14.338Z,1.60
2023-04-30T11:11:22.991Z,1.80
2023-04-30T11:14:25.496Z,1.77
2023-04-30T11:17:28.258Z,0.97
2023-04-30T11:20:30.784Z,2.53
2023-04-30T11:27:05.591Z,1.57
2023-04-30T11:30:18.669Z,1.70
2023-04-30T11:33:22.893Z,1.73
2023-04-30T11:36:26.795Z,1.80
2023-04-30T11:39:32.486Z,1.80
2023-04-30T11:42:35.597Z,1.80
2023-04-30T11:45:39.307Z,1.77
2023-04-30T11:48:44.158Z,1.23
2023-04-30T11:51:50.777Z,2.85
2023-04-30T11:54:55.592Z,1.70
2023-04-30T11:57:59.929Z,1.10
2023-04-30T12:01:02.816Z,0.88
2023-04-30T12:04:06.320Z,1.10
2023-04-30T12:07:09.754Z,0.80
2023-04-30T12:10:12.711Z,2.60
2023-04-30T12:13:16.680Z,1.30
2023-04-30T12:16:20.002Z,1.08
2023-04-30T12:19:25.365Z,1.53
2023-04-30T12:22:28.738Z,1.40
2023-04-30T12:25:31.140Z,1.17
2023-04-30T12:28:34.954Z,1.33
2023-04-30T12:31:38.631Z,1.08
2023-04-30T12:34:42.008Z,1.27
2023-04-30T12:37:45.844Z,2.08
2023-04-30T12:40:51.354Z,1.27
2023-04-30T12:44:14.191Z,1.33
2023-04-30T12:47:16.910Z,1.13
2023-04-30T12:50:22.639Z,1.20
2023-04-30T12:53:25.339Z,1.67
2023-04-30T12:56:27.775Z,1.27
2023-04-30T12:59:31.652Z,1.20
2023-04-30T13:02:34.497Z,1.27
2023-04-30T13:05:37.070Z,1.20
2023-04-30T13:08:54.081Z,1.15
2023-04-30T13:12:01.220Z,1.35
2023-04-30T13:15:03.996Z,1.60
2023-04-30T13:18:09.369Z,1.38
2023-04-30T13:21:12.748Z,0.97
2023-04-30T13:24:16.077Z,0.88
2023-04-30T13:27:18.545Z,1.65
2023-04-30T13:30:21.037Z,1.03
2023-04-30T13:33:23.529Z,1.25
2023-04-30T13:36:25.867Z,1.33
2023-04-30T13:39:28.541Z,1.08
2023-04-30T13:42:31.929Z,1.80
2023-04-30T13:45:34.433Z,1.20
2023-04-30T13:48:36.848Z,1.60
2023-04-30T13:51:39.372Z,1.97
2023-04-30T13:54:42.086Z,1.65
2023-04-30T13:57:44.505Z,1.92
2023-04-30T14:00:47.092Z,1.70
2023-04-30T14:03:49.636Z,1.63
2023-04-30T14:06:52.875Z,1.13
2023-04-30T14:09:55.446Z,1.42
2023-04-30T14:12:58.196Z,1.40
2023-04-30T14:16:00.690Z,1.48
2023-04-30T14:19:03.239Z,1.52
2023-04-30T14:22:05.832Z,1.57
2023-04-30T14:25:09.554Z,1.88
2023-04-30T14:28:12.062Z,1.40
2023-04-30T14:31:14.771Z,1.70
2023-04-30T14:34:17.608Z,1.60
2023-04-30T14:37:20.447Z,1.80
2023-04-30T14:40:23.445Z,1.92
2023-04-30T14:43:25.951Z,1.90
2023-04-30T14:46:28.612Z,2.03
2023-04-30T14:49:31.396Z,1.90
2023-04-30T14:52:33.761Z,2.57
2023-04-30T14:55:36.231Z,1.83
2023-04-30T14:58:38.701Z,1.90
2023-04-30T15:01:42.279Z,2.33
2023-04-30T15:04:46.353Z,2.05
2023-04-30T15:07:48.755Z,2.30
2023-04-30T15:10:51.182Z,2.00
2023-04-30T15:13:55.159Z,2.25
2023-04-30T15:16:57.665Z,2.13
2023-04-30T15:20:02.303Z,2.47
2023-04-30T15:23:05.525Z,2.20
2023-04-30T15:26:08.367Z,2.65
2023-04-30T15:29:11.229Z,1.90
2023-04-30T15:32:14.002Z,2.53
2023-04-30T15:35:16.513Z,2.28
2023-04-30T15:38:19.185Z,2.33
2023-04-30T15:41:22.211Z,1.95
2023-04-30T15:44:24.633Z,1.83
2023-04-30T15:47:27.145Z,1.80
2023-04-30T15:50:31.008Z,2.00
2023-04-30T15:53:33.850Z,2.20
2023-04-30T15:56:36.614Z,2.13
2023-04-30T15:59:39.046Z,2.38
2023-04-30T16:02:41.615Z,2.47
2023-04-30T16:05:44.125Z,1.73
2023-04-30T16:08:47.001Z,2.35
2023-04-30T16:11:50.844Z,2.13
2023-04-30T16:14:53.696Z,2.13
2023-04-30T16:17:58.861Z,2.25
2023-04-30T16:21:01.648Z,2.30
2023-04-30T16:24:07.793Z,2.10
2023-04-30T16:27:10.394Z,2.70
2023-04-30T16:30:13.154Z,2.13
2023-04-30T16:33:16.354Z,2.03
2023-04-30T16:36:18.967Z,2.22
2023-04-30T16:39:21.347Z,2.08
2023-04-30T16:42:34.896Z,2.40
2023-04-30T16:45:37.556Z,2.35
2023-04-30T16:48:40.281Z,2.67
2023-04-30T16:51:42.657Z,2.20
2023-04-30T16:54:45.474Z,1.93
2023-04-30T16:57:47.986Z,3.05
2023-04-30T17:00:55.944Z,3.40
2023-04-30T17:03:58.572Z,2.17
2023-04-30T17:07:01.081Z,2.10
2023-04-30T17:10:04.710Z,2.00
2023-04-30T17:13:07.170Z,2.03
2023-04-30T17:16:09.753Z,1.75
2023-04-30T17:19:12.236Z,1.98
2023-04-30T17:22:19.425Z,1.92
2023-04-30T17:25:22.446Z,1.60
2023-04-30T17:28:26.082Z,1.98
2023-04-30T17:31:30.646Z,1.88
2023-04-30T17:34:33.458Z,3.90
2023-04-30T17:37:36.621Z,2.15
2023-04-30T17:40:39.187Z,1.95
2023-04-30T17:43:41.769Z,1.90
2023-04-30T17:46:45.557Z,2.40
2023-04-30T17:49:48.317Z,2.10
2023-04-30T17:52:51.384Z,1.70
2023-04-30T17:55:53.889Z,1.87
2023-04-30T17:58:56.601Z,1.92
2023-04-30T18:01:59.713Z,2.08
2023-04-30T18:05:02.593Z,2.00
2023-04-30T18:08:06.399Z,2.08
2023-04-30T18:11:09.517Z,2.28
2023-04-30T18:14:12.664Z,1.90
2023-04-30T18:17:15.348Z,2.20
2023-04-30T18:20:18.257Z,1.80
2023-04-30T18:23:22.152Z,1.83
2023-04-30T18:26:25.048Z,1.80
2023-04-30T18:29:27.750Z,1.98
2023-04-30T18:32:30.449Z,1.80
2023-04-30T18:35:34.208Z,1.90
2023-04-30T18:38:38.772Z,2.25
2023-04-30T18:41:41.280Z,2.17
2023-04-30T18:44:43.845Z,2.03
2023-04-30T18:47:46.436Z,1.70
2023-04-30T18:50:49.947Z,1.77
2023-04-30T18:53:53.046Z,2.00
2023-04-30T18:56:55.418Z,1.60
2023-04-30T18:59:58.215Z,1.90
2023-04-30T19:03:01.202Z,1.80
2023-04-30T19:06:04.773Z,1.80
2023-04-30T19:09:07.314Z,1.88
2023-04-30T19:12:10.308Z,1.95
2023-04-30T19:15:15.048Z,1.73
2023-04-30T19:18:18.847Z,2.08
2023-04-30T19:21:21.466Z,1.90
2023-04-30T19:24:25.249Z,2.20
2023-04-30T19:27:28.096Z,1.87
2023-04-30T19:30:32.387Z,2.08
2023-04-30T19:33:39.208Z,2.60
2023-04-30T19:36:43.864Z,3.43
2023-04-30T19:39:46.546Z,3.38
2023-04-30T19:42:49.074Z,4.05
2023-04-30T19:45:53.807Z,3.45
2023-04-30T19:48:56.487Z,3.40
2023-04-30T19:51:59.341Z,3.63
2023-04-30T19:55:02.332Z,2.97
2023-04-30T19:58:05.262Z,2.10
2023-04-30T20:01:08.880Z,3.05
2023-04-30T20:04:11.845Z,3.83
2023-04-30T20:07:14.619Z,3.43
2023-04-30T20:10:17.399Z,2.53
2023-04-30T20:13:21.064Z,1.95
2023-04-30T20:16:23.920Z,3.05
2023-04-30T20:19:26.672Z,2.20
2023-04-30T20:22:29.393Z,3.13
2023-04-30T20:25:31.849Z,1.90
2023-04-30T20:28:34.800Z,1.90
2023-04-30T20:31:37.825Z,1.88
2023-04-30T20:34:41.725Z,1.80
2023-04-30T20:37:44.292Z,2.30
2023-04-30T20:40:47.192Z,1.73
2023-04-30T20:43:52.091Z,2.35
2023-04-30T20:46:54.890Z,1.80
2023-04-30T20:49:57.787Z,2.00
2023-04-30T20:53:00.823Z,1.92
2023-04-30T20:56:03.714Z,2.30
2023-04-30T20:59:06.162Z,1.83
2023-04-30T21:02:10.328Z,5.75
2023-04-30T21:05:13.206Z,3.63
2023-04-30T21:08:15.577Z,4.00
2023-04-30T21:11:19.386Z,3.28
2023-04-30T21:14:21.999Z,3.35
2023-04-30T21:17:24.422Z,5.07
2023-04-30T21:20:27.202Z,4.20
2023-04-30T21:23:30.056Z,6.53
2023-04-30T21:26:32.767Z,5.50
2023-04-30T21:29:35.483Z,5.70
2023-04-30T21:32:38.298Z,3.33
2023-04-30T21:35:40.866Z,3.00
2023-04-30T21:38:43.281Z,2.50
2023-04-30T21:41:45.882Z,3.30
2023-04-30T21:44:48.580Z,2.60
2023-04-30T21:47:51.130Z,3.10
2023-04-30T21:50:53.532Z,2.08
2023-04-30T21:53:57.396Z,2.50
2023-04-30T21:57:01.148Z,2.38
2023-04-30T22:00:07.281Z,2.57
2023-04-30T22:03:11.706Z,3.17
2023-04-30T22:06:14.247Z,2.45
2023-04-30T22:09:16.923Z,2.03
2023-04-30T22:12:21.313Z,2.15
2023-04-30T22:15:26.025Z,2.22
2023-04-30T22:18:31.758Z,2.08
2023-04-30T22:21:34.402Z,1.98
2023-04-30T22:24:37.196Z,1.65
2023-04-30T22:27:39.550Z,2.40
2023-04-30T22:30:42.036Z,2.00
2023-04-30T22:33:44.838Z,2.30
2023-04-30T22:36:47.361Z,2.10
2023-04-30T22:39:49.749Z,2.00
2023-04-30T22:42:52.355Z,1.98
2023-04-30T22:45:55.215Z,2.03
2023-04-30T22:48:57.704Z,2.10
2023-04-30T22:52:00.795Z,2.05
2023-04-30T22:55:05.544Z,2.50
2023-04-30T22:58:07.957Z,1.83
2023-04-30T23:01:10.436Z,2.03
2023-04-30T23:04:13.747Z,1.90
2023-04-30T23:07:16.659Z,2.40
2023-04-30T23:10:19.178Z,2.00
2023-04-30T23:13:21.701Z,2.22
2023-04-30T23:16:24.167Z,2.17
2023-04-30T23:19:26.851Z,1.90
2023-04-30T23:22:29.321Z,1.98
2023-04-30T23:25:32.805Z,1.63
2023-04-30T23:28:36.928Z,1.70
2023-04-30T23:31:40.155Z,1.70
2023-04-30T23:34:42.600Z,1.88
2023-04-30T23:37:45.364Z,1.73
2023-04-30T23:40:48.138Z,1.90
2023-04-30T23:43:51.064Z,1.50
2023-04-30T23:46:55.680Z,1.40
2023-04-30T23:49:58.327Z,1.70
2023-04-30T23:53:00.812Z,1.92
2023-04-30T23:56:03.592Z,1.35
2023-04-30T23:59:06.020Z,1.40
